sensor_id;sensor_type;location;lat;lon;timestamp;P1;durP1;ratioP1;P2;durP2;ratioP2
65387;SDS011;51992;53.528;49.474;2023-10-13T00:01:59;3.55;;;1.55;;
65387;SDS011;51992;53.528;49.474;2023-10-13T00:04:25;2.60;;;1.60;;
65387;SDS011;51992;53.528;49.474;2023-10-13T00:06:51;3.22;;;1.80;;
65387;SDS011;51992;53.528;49.474;2023-10-13T00:09:18;4.65;;;2.13;;
65387;SDS011;51992;53.528;49.474;2023-10-13T00:11:45;4.03;;;1.83;;
65387;SDS011;51992;53.528;49.474;2023-10-13T00:14:12;2.05;;;1.52;;
65387;SDS011;51992;53.528;49.474;2023-10-13T00:16:42;5.40;;;2.03;;
65387;SDS011;51992;53.528;49.474;2023-10-13T00:19:08;3.17;;;1.77;;
65387;SDS011;51992;53.528;49.474;2023-10-13T00:21:35;1.48;;;1.33;;
65387;SDS011;51992;53.528;49.474;2023-10-13T00:24:01;3.67;;;2.22;;
65387;SDS011;51992;53.528;49.474;2023-10-13T00:26:31;2.88;;;1.85;;
65387;SDS011;51992;53.528;49.474;2023-10-13T00:29:02;3.60;;;1.98;;
65387;SDS011;51992;53.528;49.474;2023-10-13T00:31:39;2.88;;;1.92;;
65387;SDS011;51992;53.528;49.474;2023-10-13T00:34:11;7.32;;;1.90;;
65387;SDS011;51992;53.528;49.474;2023-10-13T00:36:54;4.80;;;2.50;;
65387;SDS011;51992;53.528;49.474;2023-10-13T00:39:44;2.55;;;2.03;;
65387;SDS011;51992;53.528;49.474;2023-10-13T00:42:10;2.78;;;1.77;;
65387;SDS011;51992;53.528;49.474;2023-10-13T00:44:45;5.15;;;1.85;;
65387;SDS011;51992;53.528;49.474;2023-10-13T00:47:17;6.15;;;2.00;;
65387;SDS011;51992;53.528;49.474;2023-10-13T00:50:03;9.70;;;1.90;;
65387;SDS011;51992;53.528;49.474;2023-10-13T00:52:30;2.58;;;1.92;;
65387;SDS011;51992;53.528;49.474;2023-10-13T00:54:58;8.18;;;1.90;;
65387;SDS011;51992;53.528;49.474;2023-10-13T00:57:25;5.43;;;2.50;;
65387;SDS011;51992;53.528;49.474;2023-10-13T00:59:56;5.20;;;1.80;;
65387;SDS011;51992;53.528;49.474;2023-10-13T01:02:37;5.38;;;2.30;;
65387;SDS011;51992;53.528;49.474;2023-10-13T01:05:07;3.45;;;2.17;;
65387;SDS011;51992;53.528;49.474;2023-10-13T01:07:36;6.05;;;2.20;;
65387;SDS011;51992;53.528;49.474;2023-10-13T01:10:09;5.18;;;2.05;;
65387;SDS011;51992;53.528;49.474;2023-10-13T01:12:38;3.65;;;2.00;;
65387;SDS011;51992;53.528;49.474;2023-10-13T01:15:04;6.03;;;2.10;;
65387;SDS011;51992;53.528;49.474;2023-10-13T01:17:33;3.60;;;2.30;;
65387;SDS011;51992;53.528;49.474;2023-10-13T01:19:59;3.67;;;2.55;;
65387;SDS011;51992;53.528;49.474;2023-10-13T01:22:25;6.20;;;2.20;;
65387;SDS011;51992;53.528;49.474;2023-10-13T01:24:53;2.50;;;2.00;;
65387;SDS011;51992;53.528;49.474;2023-10-13T01:27:29;4.50;;;2.45;;
65387;SDS011;51992;53.528;49.474;2023-10-13T01:29:55;3.22;;;2.03;;
65387;SDS011;51992;53.528;49.474;2023-10-13T01:32:31;5.30;;;2.55;;
65387;SDS011;51992;53.528;49.474;2023-10-13T01:34:56;4.60;;;1.95;;
65387;SDS011;51992;53.528;49.474;2023-10-13T01:37:30;2.33;;;2.00;;
65387;SDS011;51992;53.528;49.474;2023-10-13T01:39:55;6.10;;;2.20;;
65387;SDS011;51992;53.528;49.474;2023-10-13T01:42:21;3.25;;;2.45;;
65387;SDS011;51992;53.528;49.474;2023-10-13T01:44:47;3.08;;;2.13;;
65387;SDS011;51992;53.528;49.474;2023-10-13T01:47:13;3.95;;;2.40;;
65387;SDS011;51992;53.528;49.474;2023-10-13T01:49:38;2.85;;;2.25;;
65387;SDS011;51992;53.528;49.474;2023-10-13T01:52:11;8.13;;;2.85;;
65387;SDS011;51992;53.528;49.474;2023-10-13T01:54:37;5.90;;;3.08;;
65387;SDS011;51992;53.528;49.474;2023-10-13T01:57:06;5.63;;;2.72;;
65387;SDS011;51992;53.528;49.474;2023-10-13T01:59:32;4.47;;;2.53;;
65387;SDS011;51992;53.528;49.474;2023-10-13T02:01:58;5.95;;;3.88;;
65387;SDS011;51992;53.528;49.474;2023-10-13T02:04:27;7.40;;;3.92;;
65387;SDS011;51992;53.528;49.474;2023-10-13T02:06:52;9.20;;;5.05;;
65387;SDS011;51992;53.528;49.474;2023-10-13T02:09:18;8.60;;;5.03;;
65387;SDS011;51992;53.528;49.474;2023-10-13T02:11:52;9.73;;;6.28;;
65387;SDS011;51992;53.528;49.474;2023-10-13T02:14:20;6.38;;;2.65;;
65387;SDS011;51992;53.528;49.474;2023-10-13T02:16:48;4.80;;;2.28;;
65387;SDS011;51992;53.528;49.474;2023-10-13T02:19:16;8.63;;;3.80;;
65387;SDS011;51992;53.528;49.474;2023-10-13T02:21:45;6.78;;;3.33;;
65387;SDS011;51992;53.528;49.474;2023-10-13T02:24:10;31.83;;;9.35;;
65387;SDS011;51992;53.528;49.474;2023-10-13T02:26:43;14.77;;;5.18;;
65387;SDS011;51992;53.528;49.474;2023-10-13T02:29:09;6.53;;;2.88;;
65387;SDS011;51992;53.528;49.474;2023-10-13T02:31:42;20.50;;;5.70;;
65387;SDS011;51992;53.528;49.474;2023-10-13T02:34:08;14.98;;;5.30;;
65387;SDS011;51992;53.528;49.474;2023-10-13T02:36:34;13.07;;;4.68;;
65387;SDS011;51992;53.528;49.474;2023-10-13T02:39:12;15.80;;;5.55;;
65387;SDS011;51992;53.528;49.474;2023-10-13T02:41:39;11.65;;;4.47;;
65387;SDS011;51992;53.528;49.474;2023-10-13T02:44:05;13.10;;;5.47;;
65387;SDS011;51992;53.528;49.474;2023-10-13T02:46:32;9.68;;;4.60;;
65387;SDS011;51992;53.528;49.474;2023-10-13T02:49:01;11.75;;;4.90;;
65387;SDS011;51992;53.528;49.474;2023-10-13T02:51:35;6.80;;;3.33;;
65387;SDS011;51992;53.528;49.474;2023-10-13T02:54:07;5.35;;;3.10;;
65387;SDS011;51992;53.528;49.474;2023-10-13T02:56:37;6.13;;;3.60;;
65387;SDS011;51992;53.528;49.474;2023-10-13T02:59:03;7.13;;;3.15;;
65387;SDS011;51992;53.528;49.474;2023-10-13T03:01:32;5.38;;;2.72;;
65387;SDS011;51992;53.528;49.474;2023-10-13T03:04:00;7.35;;;3.78;;
65387;SDS011;51992;53.528;49.474;2023-10-13T03:06:26;13.50;;;7.45;;
65387;SDS011;51992;53.528;49.474;2023-10-13T03:08:58;9.20;;;5.10;;
65387;SDS011;51992;53.528;49.474;2023-10-13T03:11:38;14.52;;;7.82;;
65387;SDS011;51992;53.528;49.474;2023-10-13T03:14:05;14.48;;;7.40;;
65387;SDS011;51992;53.528;49.474;2023-10-13T03:16:32;6.20;;;4.35;;
65387;SDS011;51992;53.528;49.474;2023-10-13T03:18:58;14.63;;;6.43;;
65387;SDS011;51992;53.528;49.474;2023-10-13T03:21:24;12.32;;;4.38;;
65387;SDS011;51992;53.528;49.474;2023-10-13T03:23:57;9.05;;;4.50;;
65387;SDS011;51992;53.528;49.474;2023-10-13T03:26:32;17.98;;;4.18;;
65387;SDS011;51992;53.528;49.474;2023-10-13T03:29:04;12.63;;;4.60;;
65387;SDS011;51992;53.528;49.474;2023-10-13T03:31:38;8.18;;;4.47;;
65387;SDS011;51992;53.528;49.474;2023-10-13T03:34:05;11.13;;;5.38;;
65387;SDS011;51992;53.528;49.474;2023-10-13T03:36:31;11.02;;;5.35;;
65387;SDS011;51992;53.528;49.474;2023-10-13T03:39:15;12.07;;;5.07;;
65387;SDS011;51992;53.528;49.474;2023-10-13T03:41:41;11.93;;;4.63;;
65387;SDS011;51992;53.528;49.474;2023-10-13T03:44:07;6.55;;;4.00;;
65387;SDS011;51992;53.528;49.474;2023-10-13T03:46:35;6.60;;;3.85;;
65387;SDS011;51992;53.528;49.474;2023-10-13T03:49:06;6.38;;;3.17;;
65387;SDS011;51992;53.528;49.474;2023-10-13T03:51:41;4.55;;;3.15;;
65387;SDS011;51992;53.528;49.474;2023-10-13T03:54:06;6.82;;;2.70;;
65387;SDS011;51992;53.528;49.474;2023-10-13T03:56:35;8.18;;;4.20;;
65387;SDS011;51992;53.528;49.474;2023-10-13T03:59:04;8.82;;;3.70;;
65387;SDS011;51992;53.528;49.474;2023-10-13T04:01:31;5.93;;;3.70;;
65387;SDS011;51992;53.528;49.474;2023-10-13T04:04:04;10.00;;;4.25;;
65387;SDS011;51992;53.528;49.474;2023-10-13T04:06:34;9.85;;;4.10;;
65387;SDS011;51992;53.528;49.474;2023-10-13T04:09:19;7.45;;;3.97;;
65387;SDS011;51992;53.528;49.474;2023-10-13T04:11:58;3.53;;;2.85;;
65387;SDS011;51992;53.528;49.474;2023-10-13T04:14:36;5.38;;;3.00;;
65387;SDS011;51992;53.528;49.474;2023-10-13T04:17:21;8.20;;;3.00;;
65387;SDS011;51992;53.528;49.474;2023-10-13T04:19:52;6.20;;;2.83;;
65387;SDS011;51992;53.528;49.474;2023-10-13T04:22:40;5.75;;;2.97;;
65387;SDS011;51992;53.528;49.474;2023-10-13T04:27:59;9.43;;;3.38;;
65387;SDS011;51992;53.528;49.474;2023-10-13T04:30:47;9.48;;;3.83;;
65387;SDS011;51992;53.528;49.474;2023-10-13T04:33:24;4.65;;;2.72;;
65387;SDS011;51992;53.528;49.474;2023-10-13T04:38:50;9.02;;;4.10;;
65387;SDS011;51992;53.528;49.474;2023-10-13T04:41:24;7.30;;;3.97;;
65387;SDS011;51992;53.528;49.474;2023-10-13T04:43:50;14.65;;;5.18;;
65387;SDS011;51992;53.528;49.474;2023-10-13T04:49:01;12.50;;;4.32;;
65387;SDS011;51992;53.528;49.474;2023-10-13T04:51:39;13.30;;;5.20;;
65387;SDS011;51992;53.528;49.474;2023-10-13T04:54:25;12.40;;;6.35;;
65387;SDS011;51992;53.528;49.474;2023-10-13T04:57:14;11.65;;;4.90;;
65387;SDS011;51992;53.528;49.474;2023-10-13T05:00:02;11.35;;;4.65;;
65387;SDS011;51992;53.528;49.474;2023-10-13T05:02:41;5.25;;;2.58;;
65387;SDS011;51992;53.528;49.474;2023-10-13T05:05:21;11.90;;;3.78;;
65387;SDS011;51992;53.528;49.474;2023-10-13T05:08:05;9.70;;;4.50;;
65387;SDS011;51992;53.528;49.474;2023-10-13T05:10:49;10.25;;;5.22;;
65387;SDS011;51992;53.528;49.474;2023-10-13T05:13:34;17.35;;;8.60;;
65387;SDS011;51992;53.528;49.474;2023-10-13T05:16:18;15.85;;;7.97;;
65387;SDS011;51992;53.528;49.474;2023-10-13T05:19:02;7.68;;;3.90;;
65387;SDS011;51992;53.528;49.474;2023-10-13T05:21:47;9.70;;;4.35;;
65387;SDS011;51992;53.528;49.474;2023-10-13T05:24:31;14.63;;;6.03;;
65387;SDS011;51992;53.528;49.474;2023-10-13T05:27:15;5.32;;;3.17;;
65387;SDS011;51992;53.528;49.474;2023-10-13T05:30:00;12.68;;;5.32;;
65387;SDS011;51992;53.528;49.474;2023-10-13T05:32:44;10.25;;;4.18;;
65387;SDS011;51992;53.528;49.474;2023-10-13T05:35:30;7.43;;;4.05;;
65387;SDS011;51992;53.528;49.474;2023-10-13T05:38:14;13.75;;;5.60;;
65387;SDS011;51992;53.528;49.474;2023-10-13T05:40:59;9.30;;;3.33;;
65387;SDS011;51992;53.528;49.474;2023-10-13T05:43:47;8.02;;;3.10;;
65387;SDS011;51992;53.528;49.474;2023-10-13T05:46:32;10.13;;;3.25;;
65387;SDS011;51992;53.528;49.474;2023-10-13T05:49:15;10.85;;;5.68;;
65387;SDS011;51992;53.528;49.474;2023-10-13T05:51:40;11.35;;;4.28;;
65387;SDS011;51992;53.528;49.474;2023-10-13T05:54:13;16.25;;;5.50;;
65387;SDS011;51992;53.528;49.474;2023-10-13T05:56:39;6.35;;;3.40;;
65387;SDS011;51992;53.528;49.474;2023-10-13T05:59:43;16.33;;;5.10;;
65387;SDS011;51992;53.528;49.474;2023-10-13T06:02:28;34.40;;;5.85;;
65387;SDS011;51992;53.528;49.474;2023-10-13T06:05:13;14.18;;;4.22;;
65387;SDS011;51992;53.528;49.474;2023-10-13T06:07:57;6.05;;;3.78;;
65387;SDS011;51992;53.528;49.474;2023-10-13T06:10:42;4.38;;;2.88;;
65387;SDS011;51992;53.528;49.474;2023-10-13T06:13:27;6.65;;;3.25;;
65387;SDS011;51992;53.528;49.474;2023-10-13T06:16:13;7.00;;;3.97;;
65387;SDS011;51992;53.528;49.474;2023-10-13T06:18:57;6.50;;;3.50;;
65387;SDS011;51992;53.528;49.474;2023-10-13T06:21:42;6.75;;;3.60;;
65387;SDS011;51992;53.528;49.474;2023-10-13T06:24:27;6.57;;;3.05;;
65387;SDS011;51992;53.528;49.474;2023-10-13T06:27:11;5.53;;;3.00;;
65387;SDS011;51992;53.528;49.474;2023-10-13T06:29:56;9.25;;;3.78;;
65387;SDS011;51992;53.528;49.474;2023-10-13T06:32:22;11.95;;;6.35;;
65387;SDS011;51992;53.528;49.474;2023-10-13T06:34:54;12.10;;;6.20;;
65387;SDS011;51992;53.528;49.474;2023-10-13T06:37:49;12.43;;;6.43;;
65387;SDS011;51992;53.528;49.474;2023-10-13T06:40:15;12.23;;;5.30;;
65387;SDS011;51992;53.528;49.474;2023-10-13T06:42:47;12.80;;;4.70;;
65387;SDS011;51992;53.528;49.474;2023-10-13T06:45:12;9.13;;;4.10;;
65387;SDS011;51992;53.528;49.474;2023-10-13T06:47:38;6.30;;;3.00;;
65387;SDS011;51992;53.528;49.474;2023-10-13T06:50:11;6.63;;;3.22;;
65387;SDS011;51992;53.528;49.474;2023-10-13T06:52:45;7.22;;;3.45;;
65387;SDS011;51992;53.528;49.474;2023-10-13T06:55:12;5.38;;;3.05;;
65387;SDS011;51992;53.528;49.474;2023-10-13T06:57:45;4.82;;;2.83;;
65387;SDS011;51992;53.528;49.474;2023-10-13T07:00:12;5.70;;;2.97;;
65387;SDS011;51992;53.528;49.474;2023-10-13T07:02:45;7.43;;;4.05;;
65387;SDS011;51992;53.528;49.474;2023-10-13T07:05:12;6.65;;;3.83;;
65387;SDS011;51992;53.528;49.474;2023-10-13T07:07:39;13.82;;;4.60;;
65387;SDS011;51992;53.528;49.474;2023-10-13T07:10:09;5.80;;;3.15;;
65387;SDS011;51992;53.528;49.474;2023-10-13T07:12:34;5.82;;;3.20;;
65387;SDS011;51992;53.528;49.474;2023-10-13T07:15:00;4.35;;;2.80;;
65387;SDS011;51992;53.528;49.474;2023-10-13T07:17:47;5.50;;;2.60;;
65387;SDS011;51992;53.528;49.474;2023-10-13T07:20:20;11.43;;;3.60;;
65387;SDS011;51992;53.528;49.474;2023-10-13T07:22:51;8.48;;;3.55;;
65387;SDS011;51992;53.528;49.474;2023-10-13T07:25:29;5.72;;;3.33;;
65387;SDS011;51992;53.528;49.474;2023-10-13T07:28:01;6.60;;;3.03;;
65387;SDS011;51992;53.528;49.474;2023-10-13T07:30:26;9.85;;;3.70;;
65387;SDS011;51992;53.528;49.474;2023-10-13T07:32:53;10.73;;;3.63;;
65387;SDS011;51992;53.528;49.474;2023-10-13T07:35:20;8.55;;;3.65;;
65387;SDS011;51992;53.528;49.474;2023-10-13T07:37:50;6.95;;;3.97;;
65387;SDS011;51992;53.528;49.474;2023-10-13T07:40:25;3.75;;;2.47;;
65387;SDS011;51992;53.528;49.474;2023-10-13T07:42:51;5.10;;;1.98;;
65387;SDS011;51992;53.528;49.474;2023-10-13T07:45:17;5.50;;;3.42;;
65387;SDS011;51992;53.528;49.474;2023-10-13T07:48:13;4.30;;;2.17;;
65387;SDS011;51992;53.528;49.474;2023-10-13T07:51:05;5.95;;;3.42;;
65387;SDS011;51992;53.528;49.474;2023-10-13T07:53:35;8.60;;;4.45;;
65387;SDS011;51992;53.528;49.474;2023-10-13T07:56:04;11.52;;;4.32;;
65387;SDS011;51992;53.528;49.474;2023-10-13T07:58:52;8.40;;;3.65;;
65387;SDS011;51992;53.528;49.474;2023-10-13T08:01:20;9.00;;;3.65;;
65387;SDS011;51992;53.528;49.474;2023-10-13T08:03:47;6.88;;;3.28;;
65387;SDS011;51992;53.528;49.474;2023-10-13T08:06:16;14.98;;;4.28;;
65387;SDS011;51992;53.528;49.474;2023-10-13T08:08:42;7.72;;;4.30;;
65387;SDS011;51992;53.528;49.474;2023-10-13T08:11:09;13.75;;;6.45;;
65387;SDS011;51992;53.528;49.474;2023-10-13T08:13:57;15.77;;;6.40;;
65387;SDS011;51992;53.528;49.474;2023-10-13T08:16:26;10.35;;;4.82;;
65387;SDS011;51992;53.528;49.474;2023-10-13T08:19:12;10.00;;;5.00;;
65387;SDS011;51992;53.528;49.474;2023-10-13T08:21:44;15.27;;;6.20;;
65387;SDS011;51992;53.528;49.474;2023-10-13T08:24:23;11.73;;;4.80;;
65387;SDS011;51992;53.528;49.474;2023-10-13T08:27:12;11.35;;;4.13;;
65387;SDS011;51992;53.528;49.474;2023-10-13T08:29:45;14.73;;;4.75;;
65387;SDS011;51992;53.528;49.474;2023-10-13T08:32:23;17.20;;;6.00;;
65387;SDS011;51992;53.528;49.474;2023-10-13T08:35:09;8.60;;;4.32;;
65387;SDS011;51992;53.528;49.474;2023-10-13T08:37:35;14.18;;;4.85;;
65387;SDS011;51992;53.528;49.474;2023-10-13T08:40:22;11.73;;;4.47;;
65387;SDS011;51992;53.528;49.474;2023-10-13T08:43:07;10.00;;;4.55;;
65387;SDS011;51992;53.528;49.474;2023-10-13T08:45:37;11.48;;;4.35;;
65387;SDS011;51992;53.528;49.474;2023-10-13T08:48:03;6.97;;;3.88;;
65387;SDS011;51992;53.528;49.474;2023-10-13T08:50:37;9.02;;;3.47;;
65387;SDS011;51992;53.528;49.474;2023-10-13T08:53:19;8.52;;;4.15;;
65387;SDS011;51992;53.528;49.474;2023-10-13T08:56:01;7.20;;;3.45;;
65387;SDS011;51992;53.528;49.474;2023-10-13T08:58:43;7.03;;;3.53;;
65387;SDS011;51992;53.528;49.474;2023-10-13T09:01:30;5.18;;;3.08;;
65387;SDS011;51992;53.528;49.474;2023-10-13T09:04:17;11.55;;;5.22;;
65387;SDS011;51992;53.528;49.474;2023-10-13T09:07:04;7.65;;;3.42;;
65387;SDS011;51992;53.528;49.474;2023-10-13T09:09:33;9.00;;;4.40;;
65387;SDS011;51992;53.528;49.474;2023-10-13T09:14:37;15.52;;;5.57;;
65387;SDS011;51992;53.528;49.474;2023-10-13T09:17:05;10.65;;;4.88;;
65387;SDS011;51992;53.528;49.474;2023-10-13T09:19:50;8.25;;;4.25;;
65387;SDS011;51992;53.528;49.474;2023-10-13T09:22:22;14.43;;;5.72;;
65387;SDS011;51992;53.528;49.474;2023-10-13T09:24:56;14.05;;;5.68;;
65387;SDS011;51992;53.528;49.474;2023-10-13T09:27:30;9.90;;;4.22;;
65387;SDS011;51992;53.528;49.474;2023-10-13T09:29:58;14.25;;;5.88;;
65387;SDS011;51992;53.528;49.474;2023-10-13T09:32:35;11.32;;;5.22;;
65387;SDS011;51992;53.528;49.474;2023-10-13T09:35:16;9.30;;;5.00;;
65387;SDS011;51992;53.528;49.474;2023-10-13T09:37:43;11.05;;;5.05;;
65387;SDS011;51992;53.528;49.474;2023-10-13T09:40:13;16.88;;;5.78;;
65387;SDS011;51992;53.528;49.474;2023-10-13T09:43:12;14.10;;;5.45;;
65387;SDS011;51992;53.528;49.474;2023-10-13T09:45:41;18.63;;;5.72;;
65387;SDS011;51992;53.528;49.474;2023-10-13T09:50:51;9.45;;;5.00;;
65387;SDS011;51992;53.528;49.474;2023-10-13T09:53:22;8.95;;;4.07;;
65387;SDS011;51992;53.528;49.474;2023-10-13T09:58:23;17.70;;;6.13;;
65387;SDS011;51992;53.528;49.474;2023-10-13T10:00:54;10.23;;;3.95;;
65387;SDS011;51992;53.528;49.474;2023-10-13T10:03:25;12.63;;;4.60;;
65387;SDS011;51992;53.528;49.474;2023-10-13T10:06:01;13.38;;;4.90;;
65387;SDS011;51992;53.528;49.474;2023-10-13T10:08:32;18.27;;;6.00;;
65387;SDS011;51992;53.528;49.474;2023-10-13T10:16:39;2.92;;;2.00;;
65387;SDS011;51992;53.528;49.474;2023-10-13T10:19:12;4.72;;;3.28;;
65387;SDS011;51992;53.528;49.474;2023-10-13T10:21:38;8.02;;;3.78;;
65387;SDS011;51992;53.528;49.474;2023-10-13T10:24:17;6.38;;;3.53;;
65387;SDS011;51992;53.528;49.474;2023-10-13T10:26:55;3.97;;;3.38;;
65387;SDS011;51992;53.528;49.474;2023-10-13T10:29:21;8.88;;;4.20;;
65387;SDS011;51992;53.528;49.474;2023-10-13T10:31:48;11.75;;;5.65;;
65387;SDS011;51992;53.528;49.474;2023-10-13T10:34:17;9.65;;;5.55;;
65387;SDS011;51992;53.528;49.474;2023-10-13T10:36:48;11.45;;;6.07;;
65387;SDS011;51992;53.528;49.474;2023-10-13T10:39:18;7.07;;;4.28;;
65387;SDS011;51992;53.528;49.474;2023-10-13T10:41:44;8.73;;;5.15;;
65387;SDS011;51992;53.528;49.474;2023-10-13T10:44:14;6.50;;;4.10;;
65387;SDS011;51992;53.528;49.474;2023-10-13T10:46:51;9.48;;;4.10;;
65387;SDS011;51992;53.528;49.474;2023-10-13T10:51:57;4.65;;;3.28;;
65387;SDS011;51992;53.528;49.474;2023-10-13T10:54:25;6.30;;;3.30;;
65387;SDS011;51992;53.528;49.474;2023-10-13T10:56:57;4.68;;;3.00;;
65387;SDS011;51992;53.528;49.474;2023-10-13T10:59:34;5.32;;;2.95;;
65387;SDS011;51992;53.528;49.474;2023-10-13T11:02:02;7.22;;;3.47;;
65387;SDS011;51992;53.528;49.474;2023-10-13T11:04:28;4.78;;;3.70;;
65387;SDS011;51992;53.528;49.474;2023-10-13T11:06:59;8.02;;;4.20;;
65387;SDS011;51992;53.528;49.474;2023-10-13T11:09:25;6.90;;;4.90;;
65387;SDS011;51992;53.528;49.474;2023-10-13T11:11:52;5.63;;;4.05;;
65387;SDS011;51992;53.528;49.474;2023-10-13T11:16:50;8.70;;;5.15;;
65387;SDS011;51992;53.528;49.474;2023-10-13T11:19:20;6.15;;;3.80;;
65387;SDS011;51992;53.528;49.474;2023-10-13T11:21:53;9.30;;;4.05;;
65387;SDS011;51992;53.528;49.474;2023-10-13T11:24:19;5.68;;;3.65;;
65387;SDS011;51992;53.528;49.474;2023-10-13T11:26:47;11.82;;;5.63;;
65387;SDS011;51992;53.528;49.474;2023-10-13T11:29:18;5.53;;;3.50;;
65387;SDS011;51992;53.528;49.474;2023-10-13T11:31:47;16.13;;;7.07;;
65387;SDS011;51992;53.528;49.474;2023-10-13T11:34:19;7.25;;;4.78;;
65387;SDS011;51992;53.528;49.474;2023-10-13T11:36:45;5.10;;;3.60;;
65387;SDS011;51992;53.528;49.474;2023-10-13T11:39:10;6.72;;;3.42;;
65387;SDS011;51992;53.528;49.474;2023-10-13T11:41:49;8.40;;;3.95;;
65387;SDS011;51992;53.528;49.474;2023-10-13T11:44:21;4.78;;;3.67;;
65387;SDS011;51992;53.528;49.474;2023-10-13T11:46:50;5.82;;;3.15;;
65387;SDS011;51992;53.528;49.474;2023-10-13T11:49:22;5.40;;;3.40;;
65387;SDS011;51992;53.528;49.474;2023-10-13T11:51:53;4.25;;;2.80;;
65387;SDS011;51992;53.528;49.474;2023-10-13T11:54:38;5.63;;;3.40;;
65387;SDS011;51992;53.528;49.474;2023-10-13T11:57:07;6.45;;;3.58;;
65387;SDS011;51992;53.528;49.474;2023-10-13T11:59:33;10.07;;;3.40;;
65387;SDS011;51992;53.528;49.474;2023-10-13T12:02:03;6.47;;;3.40;;
65387;SDS011;51992;53.528;49.474;2023-10-13T12:04:47;6.03;;;3.08;;
65387;SDS011;51992;53.528;49.474;2023-10-13T12:07:29;4.88;;;3.28;;
65387;SDS011;51992;53.528;49.474;2023-10-13T12:10:13;8.65;;;3.08;;
65387;SDS011;51992;53.528;49.474;2023-10-13T12:12:58;5.75;;;3.63;;
65387;SDS011;51992;53.528;49.474;2023-10-13T12:15:31;5.53;;;3.60;;
65387;SDS011;51992;53.528;49.474;2023-10-13T12:18:03;6.43;;;3.92;;
65387;SDS011;51992;53.528;49.474;2023-10-13T12:20:29;5.05;;;3.63;;
65387;SDS011;51992;53.528;49.474;2023-10-13T12:22:58;5.20;;;3.70;;
65387;SDS011;51992;53.528;49.474;2023-10-13T12:25:36;4.68;;;3.10;;
65387;SDS011;51992;53.528;49.474;2023-10-13T12:28:10;4.78;;;3.38;;
65387;SDS011;51992;53.528;49.474;2023-10-13T12:30:47;8.57;;;4.03;;
65387;SDS011;51992;53.528;49.474;2023-10-13T12:33:19;4.70;;;3.70;;
65387;SDS011;51992;53.528;49.474;2023-10-13T12:35:56;3.92;;;3.08;;
65387;SDS011;51992;53.528;49.474;2023-10-13T12:38:35;6.78;;;4.35;;
65387;SDS011;51992;53.528;49.474;2023-10-13T12:41:13;7.45;;;4.00;;
65387;SDS011;51992;53.528;49.474;2023-10-13T12:43:58;9.07;;;4.28;;
65387;SDS011;51992;53.528;49.474;2023-10-13T12:46:42;5.90;;;4.15;;
65387;SDS011;51992;53.528;49.474;2023-10-13T12:49:27;10.88;;;4.13;;
65387;SDS011;51992;53.528;49.474;2023-10-13T12:52:08;8.50;;;3.90;;
65387;SDS011;51992;53.528;49.474;2023-10-13T12:54:51;9.02;;;4.05;;
65387;SDS011;51992;53.528;49.474;2023-10-13T12:57:29;7.43;;;4.40;;
65387;SDS011;51992;53.528;49.474;2023-10-13T12:59:55;7.05;;;4.53;;
65387;SDS011;51992;53.528;49.474;2023-10-13T13:02:21;6.10;;;4.22;;
65387;SDS011;51992;53.528;49.474;2023-10-13T13:04:50;7.00;;;4.05;;
65387;SDS011;51992;53.528;49.474;2023-10-13T13:07:20;9.15;;;4.20;;
65387;SDS011;51992;53.528;49.474;2023-10-13T13:09:45;3.65;;;2.55;;
65387;SDS011;51992;53.528;49.474;2023-10-13T13:12:11;8.70;;;4.22;;
65387;SDS011;51992;53.528;49.474;2023-10-13T13:14:40;12.07;;;5.57;;
65387;SDS011;51992;53.528;49.474;2023-10-13T13:17:12;8.48;;;5.97;;
65387;SDS011;51992;53.528;49.474;2023-10-13T13:19:37;8.77;;;5.47;;
65387;SDS011;51992;53.528;49.474;2023-10-13T13:22:06;6.90;;;5.38;;
65387;SDS011;51992;53.528;49.474;2023-10-13T13:24:42;13.68;;;9.75;;
65387;SDS011;51992;53.528;49.474;2023-10-13T13:27:15;8.65;;;4.93;;
65387;SDS011;51992;53.528;49.474;2023-10-13T13:32:09;6.55;;;4.50;;
65387;SDS011;51992;53.528;49.474;2023-10-13T13:34:44;6.00;;;4.53;;
65387;SDS011;51992;53.528;49.474;2023-10-13T13:37:10;5.80;;;4.40;;
65387;SDS011;51992;53.528;49.474;2023-10-13T13:39:38;6.90;;;4.82;;
65387;SDS011;51992;53.528;49.474;2023-10-13T13:42:09;5.47;;;3.80;;
65387;SDS011;51992;53.528;49.474;2023-10-13T13:44:35;6.80;;;4.13;;
65387;SDS011;51992;53.528;49.474;2023-10-13T13:47:03;6.13;;;4.15;;
65387;SDS011;51992;53.528;49.474;2023-10-13T13:49:40;5.20;;;4.30;;
65387;SDS011;51992;53.528;49.474;2023-10-13T13:52:09;6.13;;;4.28;;
65387;SDS011;51992;53.528;49.474;2023-10-13T13:54:35;8.55;;;4.53;;
65387;SDS011;51992;53.528;49.474;2023-10-13T13:57:01;6.18;;;4.18;;
65387;SDS011;51992;53.528;49.474;2023-10-13T13:59:26;6.60;;;4.85;;
65387;SDS011;51992;53.528;49.474;2023-10-13T14:02:00;7.85;;;4.65;;
65387;SDS011;51992;53.528;49.474;2023-10-13T14:04:26;6.50;;;4.70;;
65387;SDS011;51992;53.528;49.474;2023-10-13T14:06:56;8.20;;;4.87;;
65387;SDS011;51992;53.528;49.474;2023-10-13T14:09:22;7.53;;;4.78;;
65387;SDS011;51992;53.528;49.474;2023-10-13T14:12:06;7.63;;;4.80;;
65387;SDS011;51992;53.528;49.474;2023-10-13T14:14:50;7.30;;;4.57;;
65387;SDS011;51992;53.528;49.474;2023-10-13T14:17:21;6.68;;;4.30;;
65387;SDS011;51992;53.528;49.474;2023-10-13T14:19:57;7.72;;;4.40;;
65387;SDS011;51992;53.528;49.474;2023-10-13T14:22:23;5.07;;;4.30;;
65387;SDS011;51992;53.528;49.474;2023-10-13T14:24:52;7.50;;;4.95;;
65387;SDS011;51992;53.528;49.474;2023-10-13T14:27:21;5.95;;;4.32;;
65387;SDS011;51992;53.528;49.474;2023-10-13T14:29:49;7.28;;;5.00;;
65387;SDS011;51992;53.528;49.474;2023-10-13T14:32:18;7.53;;;4.20;;
65387;SDS011;51992;53.528;49.474;2023-10-13T14:34:47;5.93;;;4.60;;
65387;SDS011;51992;53.528;49.474;2023-10-13T14:37:19;5.85;;;4.40;;
65387;SDS011;51992;53.528;49.474;2023-10-13T14:39:55;6.78;;;4.57;;
65387;SDS011;51992;53.528;49.474;2023-10-13T14:42:23;6.93;;;4.73;;
65387;SDS011;51992;53.528;49.474;2023-10-13T14:44:48;4.90;;;4.38;;
65387;SDS011;51992;53.528;49.474;2023-10-13T14:47:26;8.38;;;4.35;;
65387;SDS011;51992;53.528;49.474;2023-10-13T14:52:20;5.93;;;4.45;;
65387;SDS011;51992;53.528;49.474;2023-10-13T14:54:46;7.13;;;5.00;;
65387;SDS011;51992;53.528;49.474;2023-10-13T14:57:13;7.35;;;5.03;;
65387;SDS011;51992;53.528;49.474;2023-10-13T14:59:39;8.90;;;5.57;;
65387;SDS011;51992;53.528;49.474;2023-10-13T15:02:04;13.98;;;7.40;;
65387;SDS011;51992;53.528;49.474;2023-10-13T15:04:30;10.63;;;7.15;;
65387;SDS011;51992;53.528;49.474;2023-10-13T15:06:58;14.98;;;8.43;;
65387;SDS011;51992;53.528;49.474;2023-10-13T15:09:25;13.40;;;6.60;;
65387;SDS011;51992;53.528;49.474;2023-10-13T15:11:50;9.25;;;5.30;;
65387;SDS011;51992;53.528;49.474;2023-10-13T15:14:19;6.28;;;5.03;;
65387;SDS011;51992;53.528;49.474;2023-10-13T15:16:45;6.53;;;4.88;;
65387;SDS011;51992;53.528;49.474;2023-10-13T15:19:11;5.55;;;4.57;;
65387;SDS011;51992;53.528;49.474;2023-10-13T15:21:37;7.47;;;5.03;;
65387;SDS011;51992;53.528;49.474;2023-10-13T15:24:06;7.25;;;5.05;;
65387;SDS011;51992;53.528;49.474;2023-10-13T15:26:46;7.32;;;5.05;;
65387;SDS011;51992;53.528;49.474;2023-10-13T15:29:18;8.73;;;5.10;;
65387;SDS011;51992;53.528;49.474;2023-10-13T15:31:44;6.38;;;5.10;;
65387;SDS011;51992;53.528;49.474;2023-10-13T15:34:30;7.07;;;4.90;;
65387;SDS011;51992;53.528;49.474;2023-10-13T15:36:56;6.25;;;4.40;;